<?xml version="1.0" encoding="UTF-8" standalone="no" ?>
<gpx xmlns="http://www.topografix.com/GPX/1/1" xmlns:xsi="http://www.w3.org/2001/XMLSchema-instance" xsi:schemaLocation="http://www.topografix.com/GPX/1/1 http://www.topografix.com/GPX/1/1/gpx.xsd" version="1.1" creator="VisuGPX - https://www.visugpx.com">
  <metadata>
    <name>30: Ceilhes - Rocozels</name>
    <desc><![CDATA[30: Ceilhes - Rocozels]]></desc>
  </metadata>
  <wpt lat="43.83631" lon="3.12279">
    <ele>520</ele>
    <name><![CDATA[Accueil PdC Centre]]></name>
  </wpt>
  <wpt lat="43.81789" lon="3.11195">
    <ele>700</ele>
    <name><![CDATA[CHA]]></name>
  </wpt>
  <wpt lat="43.8153" lon="3.11427">
    <ele>619.9</ele>
    <name><![CDATA[CHB]]></name>
  </wpt>
  <wpt lat="43.81138" lon="3.11377">
    <ele>539.9</ele>
    <name><![CDATA[CHC]]></name>
  </wpt>
  <wpt lat="43.81069" lon="3.11359">
    <ele>530.1</ele>
    <name><![CDATA[CHD]]></name>
  </wpt>
  <wpt lat="43.8056" lon="3.11103">
    <ele>445</ele>
    <name><![CDATA[CHE]]></name>
  </wpt>
  <wpt lat="43.8054" lon="3.11015">
    <ele>445</ele>
    <name><![CDATA[CHF]]></name>
  </wpt>
  <wpt lat="43.80304" lon="3.10903">
    <ele>435.1</ele>
    <name><![CDATA[CHG]]></name>
  </wpt>
  <wpt lat="43.80838" lon="3.08437">
    <ele>555</ele>
    <name><![CDATA[CVT]]></name>
  </wpt>
  <wpt lat="43.80264" lon="3.08978">
    <ele>500</ele>
    <name><![CDATA[GRA]]></name>
  </wpt>
  <wpt lat="43.80285" lon="3.0977">
    <ele>439.9</ele>
    <name><![CDATA[GRB]]></name>
  </wpt>
  <wpt lat="43.80336" lon="3.0979">
    <ele>435.1</ele>
    <name><![CDATA[GRC]]></name>
  </wpt>
  <wpt lat="43.83529" lon="3.11427">
    <ele>560.1</ele>
    <name><![CDATA[GUA]]></name>
  </wpt>
  <wpt lat="43.83346" lon="3.11202">
    <ele>569.9</ele>
    <name><![CDATA[GUB]]></name>
  </wpt>
  <wpt lat="43.83217" lon="3.11049">
    <ele>580</ele>
    <name><![CDATA[GUC]]></name>
  </wpt>
  <wpt lat="43.8298" lon="3.10534">
    <ele>619.9</ele>
    <name><![CDATA[GUD]]></name>
  </wpt>
  <wpt lat="43.82727" lon="3.10152">
    <ele>650</ele>
    <name><![CDATA[GUE]]></name>
  </wpt>
  <wpt lat="43.8255" lon="3.09785">
    <ele>675</ele>
    <name><![CDATA[GUF]]></name>
  </wpt>
  <wpt lat="43.83565" lon="3.12242">
    <ele>530.1</ele>
    <name><![CDATA[PCB]]></name>
  </wpt>
  <wpt lat="43.83657" lon="3.11798">
    <ele>530.1</ele>
    <name><![CDATA[PCD]]></name>
  </wpt>
  <wpt lat="43.82325" lon="3.0939">
    <ele>710.1</ele>
    <name><![CDATA[PRB]]></name>
  </wpt>
  <wpt lat="43.82091" lon="3.10845">
    <ele>719.9</ele>
    <name><![CDATA[PTE]]></name>
  </wpt>
  <wpt lat="43.81894" lon="3.11018">
    <ele>719.9</ele>
    <name><![CDATA[PTF]]></name>
  </wpt>
  <wpt lat="43.81419" lon="3.08742">
    <ele>610.1</ele>
    <name><![CDATA[RCZ]]></name>
  </wpt>
  <wpt lat="43.8336" lon="3.12054">
    <ele>555</ele>
    <name><![CDATA[RMA]]></name>
  </wpt>
  <wpt lat="43.8271" lon="3.1147">
    <ele>640.1</ele>
    <name><![CDATA[RMB]]></name>
  </wpt>
  <wpt lat="43.82262" lon="3.11042">
    <ele>735.1</ele>
    <name><![CDATA[RMC]]></name>
  </wpt>
  <wpt lat="43.82326" lon="3.0922">
    <ele>690.1</ele>
    <name><![CDATA[RZA]]></name>
  </wpt>
  <wpt lat="43.81994" lon="3.09141">
    <ele>640.1</ele>
    <name><![CDATA[RZB]]></name>
  </wpt>
  <wpt lat="43.81603" lon="3.09056">
    <ele>600</ele>
    <name><![CDATA[RZC]]></name>
  </wpt>
  <wpt lat="43.81428" lon="3.08903">
    <ele>610.1</ele>
    <name><![CDATA[RZD]]></name>
  </wpt>
  <trk>
    <name><![CDATA[RoTr 30 PdC]]></name>
    <trkseg>
      <trkpt lat="43.83564" lon="3.12242">
        <ele>531</ele>
        <time>2010-01-01T00:00:00Z</time>
      </trkpt>
      <trkpt lat="43.83551" lon="3.12223">
        <ele>535</ele>
        <time>2010-01-01T00:00:31Z</time>
      </trkpt>
      <trkpt lat="43.83535" lon="3.12201">
        <ele>539</ele>
        <time>2010-01-01T00:01:09Z</time>
      </trkpt>
      <trkpt lat="43.83516" lon="3.12172">
        <ele>541</ele>
        <time>2010-01-01T00:01:57Z</time>
      </trkpt>
      <trkpt lat="43.83501" lon="3.12144">
        <ele>541</ele>
        <time>2010-01-01T00:02:40Z</time>
      </trkpt>
      <trkpt lat="43.83477" lon="3.12116">
        <ele>546</ele>
        <time>2010-01-01T00:03:33Z</time>
      </trkpt>
      <trkpt lat="43.8345" lon="3.12096">
        <ele>548</ele>
        <time>2010-01-01T00:04:24Z</time>
      </trkpt>
      <trkpt lat="43.83416" lon="3.12078">
        <ele>551</ele>
        <time>2010-01-01T00:05:27Z</time>
      </trkpt>
      <trkpt lat="43.83388" lon="3.12066">
        <ele>557</ele>
        <time>2010-01-01T00:06:16Z</time>
      </trkpt>
      <trkpt lat="43.83362" lon="3.12051">
        <ele>561</ele>
        <time>2010-01-01T00:07:03Z</time>
      </trkpt>
      <trkpt lat="43.83357" lon="3.12053">
        <ele>563</ele>
        <time>2010-01-01T00:07:12Z</time>
      </trkpt>
      <trkpt lat="43.8329" lon="3.12017">
        <ele>570</ele>
        <time>2010-01-01T00:09:12Z</time>
      </trkpt>
      <trkpt lat="43.83192" lon="3.1194">
        <ele>581</ele>
        <time>2010-01-01T00:12:23Z</time>
      </trkpt>
      <trkpt lat="43.83115" lon="3.11862">
        <ele>592</ele>
        <time>2010-01-01T00:15:04Z</time>
      </trkpt>
      <trkpt lat="43.83075" lon="3.11798">
        <ele>591</ele>
        <time>2010-01-01T00:16:47Z</time>
      </trkpt>
      <trkpt lat="43.83039" lon="3.11721">
        <ele>596</ele>
        <time>2010-01-01T00:18:39Z</time>
      </trkpt>
      <trkpt lat="43.83005" lon="3.11677">
        <ele>595</ele>
        <time>2010-01-01T00:19:57Z</time>
      </trkpt>
      <trkpt lat="43.82864" lon="3.11622">
        <ele>624</ele>
        <time>2010-01-01T00:24:04Z</time>
      </trkpt>
      <trkpt lat="43.82808" lon="3.1157">
        <ele>637</ele>
        <time>2010-01-01T00:25:58Z</time>
      </trkpt>
      <trkpt lat="43.82742" lon="3.11492">
        <ele>651</ele>
        <time>2010-01-01T00:28:24Z</time>
      </trkpt>
      <trkpt lat="43.82743" lon="3.11482">
        <ele>653</ele>
        <time>2010-01-01T00:28:37Z</time>
      </trkpt>
      <trkpt lat="43.82721" lon="3.11461">
        <ele>661</ele>
        <time>2010-01-01T00:29:23Z</time>
      </trkpt>
      <trkpt lat="43.82714" lon="3.11464">
        <ele>661</ele>
        <time>2010-01-01T00:29:35Z</time>
      </trkpt>
      <trkpt lat="43.82714" lon="3.11466">
        <ele>661</ele>
        <time>2010-01-01T00:29:38Z</time>
      </trkpt>
      <trkpt lat="43.82516" lon="3.11302">
        <ele>699</ele>
        <time>2010-01-01T00:36:07Z</time>
      </trkpt>
      <trkpt lat="43.82465" lon="3.11188">
        <ele>709</ele>
        <time>2010-01-01T00:38:50Z</time>
      </trkpt>
      <trkpt lat="43.82362" lon="3.11097">
        <ele>722</ele>
        <time>2010-01-01T00:42:17Z</time>
      </trkpt>
      <trkpt lat="43.82261" lon="3.11046">
        <ele>734</ele>
        <time>2010-01-01T00:45:19Z</time>
      </trkpt>
      <trkpt lat="43.82257" lon="3.11037">
        <ele>735</ele>
        <time>2010-01-01T00:45:31Z</time>
      </trkpt>
      <trkpt lat="43.82262" lon="3.11019">
        <ele>736</ele>
        <time>2010-01-01T00:45:54Z</time>
      </trkpt>
      <trkpt lat="43.82252" lon="3.1095">
        <ele>737</ele>
        <time>2010-01-01T00:47:20Z</time>
      </trkpt>
      <trkpt lat="43.82191" lon="3.10932">
        <ele>734</ele>
        <time>2010-01-01T00:49:05Z</time>
      </trkpt>
      <trkpt lat="43.82116" lon="3.10883">
        <ele>725</ele>
        <time>2010-01-01T00:51:24Z</time>
      </trkpt>
      <trkpt lat="43.82086" lon="3.10849">
        <ele>722</ele>
        <time>2010-01-01T00:52:31Z</time>
      </trkpt>
      <trkpt lat="43.82084" lon="3.10844">
        <ele>722</ele>
        <time>2010-01-01T00:52:37Z</time>
      </trkpt>
      <trkpt lat="43.82041" lon="3.10841">
        <ele>716</ele>
        <time>2010-01-01T00:53:50Z</time>
      </trkpt>
      <trkpt lat="43.82011" lon="3.10857">
        <ele>713</ele>
        <time>2010-01-01T00:54:43Z</time>
      </trkpt>
      <trkpt lat="43.81926" lon="3.10966">
        <ele>707</ele>
        <time>2010-01-01T00:58:00Z</time>
      </trkpt>
      <trkpt lat="43.81894" lon="3.11017">
        <ele>706</ele>
        <time>2010-01-01T00:59:22Z</time>
      </trkpt>
      <trkpt lat="43.81893" lon="3.11018">
        <ele>706</ele>
        <time>2010-01-01T00:59:25Z</time>
      </trkpt>
      <trkpt lat="43.81848" lon="3.11115">
        <ele>706</ele>
        <time>2010-01-01T01:01:44Z</time>
      </trkpt>
      <trkpt lat="43.81786" lon="3.11193">
        <ele>698</ele>
        <time>2010-01-01T01:04:07Z</time>
      </trkpt>
      <trkpt lat="43.81785" lon="3.11195">
        <ele>698</ele>
        <time>2010-01-01T01:04:10Z</time>
      </trkpt>
      <trkpt lat="43.81762" lon="3.11183">
        <ele>687</ele>
        <time>2010-01-01T01:04:51Z</time>
      </trkpt>
      <trkpt lat="43.81534" lon="3.11426">
        <ele>632</ele>
        <time>2010-01-01T01:12:57Z</time>
      </trkpt>
      <trkpt lat="43.8153" lon="3.11431">
        <ele>631</ele>
        <time>2010-01-01T01:13:06Z</time>
      </trkpt>
      <trkpt lat="43.81434" lon="3.11492">
        <ele>609</ele>
        <time>2010-01-01T01:16:05Z</time>
      </trkpt>
      <trkpt lat="43.81283" lon="3.11392">
        <ele>569</ele>
        <time>2010-01-01T01:20:47Z</time>
      </trkpt>
      <trkpt lat="43.81146" lon="3.11377">
        <ele>535</ele>
        <time>2010-01-01T01:24:40Z</time>
      </trkpt>
      <trkpt lat="43.81141" lon="3.11378">
        <ele>534</ele>
        <time>2010-01-01T01:24:48Z</time>
      </trkpt>
      <trkpt lat="43.81133" lon="3.11381">
        <ele>533</ele>
        <time>2010-01-01T01:25:01Z</time>
      </trkpt>
      <trkpt lat="43.81069" lon="3.11362">
        <ele>523</ele>
        <time>2010-01-01T01:26:52Z</time>
      </trkpt>
      <trkpt lat="43.81068" lon="3.11362">
        <ele>522</ele>
        <time>2010-01-01T01:26:54Z</time>
      </trkpt>
      <trkpt lat="43.81051" lon="3.11351">
        <ele>521</ele>
        <time>2010-01-01T01:27:26Z</time>
      </trkpt>
      <trkpt lat="43.80926" lon="3.11321">
        <ele>506</ele>
        <time>2010-01-01T01:31:01Z</time>
      </trkpt>
      <trkpt lat="43.80869" lon="3.11331">
        <ele>497</ele>
        <time>2010-01-01T01:32:38Z</time>
      </trkpt>
      <trkpt lat="43.80714" lon="3.11288">
        <ele>476</ele>
        <time>2010-01-01T01:37:05Z</time>
      </trkpt>
      <trkpt lat="43.80674" lon="3.11262">
        <ele>469</ele>
        <time>2010-01-01T01:38:19Z</time>
      </trkpt>
      <trkpt lat="43.80612" lon="3.11243">
        <ele>460</ele>
        <time>2010-01-01T01:40:07Z</time>
      </trkpt>
      <trkpt lat="43.80584" lon="3.11148">
        <ele>447</ele>
        <time>2010-01-01T01:42:11Z</time>
      </trkpt>
      <trkpt lat="43.80569" lon="3.11117">
        <ele>446</ele>
        <time>2010-01-01T01:42:57Z</time>
      </trkpt>
      <trkpt lat="43.8057" lon="3.11122">
        <ele>446</ele>
        <time>2010-01-01T01:43:03Z</time>
      </trkpt>
      <trkpt lat="43.8054" lon="3.11042">
        <ele>447</ele>
        <time>2010-01-01T01:44:52Z</time>
      </trkpt>
      <trkpt lat="43.80537" lon="3.1104">
        <ele>447</ele>
        <time>2010-01-01T01:44:59Z</time>
      </trkpt>
      <trkpt lat="43.80518" lon="3.11037">
        <ele>447</ele>
        <time>2010-01-01T01:45:32Z</time>
      </trkpt>
      <trkpt lat="43.80517" lon="3.11037">
        <ele>447</ele>
        <time>2010-01-01T01:45:33Z</time>
      </trkpt>
      <trkpt lat="43.80503" lon="3.11042">
        <ele>446</ele>
        <time>2010-01-01T01:45:57Z</time>
      </trkpt>
      <trkpt lat="43.80461" lon="3.11068">
        <ele>446</ele>
        <time>2010-01-01T01:47:14Z</time>
      </trkpt>
      <trkpt lat="43.80453" lon="3.11024">
        <ele>450</ele>
        <time>2010-01-01T01:48:09Z</time>
      </trkpt>
      <trkpt lat="43.80419" lon="3.11017">
        <ele>452</ele>
        <time>2010-01-01T01:49:06Z</time>
      </trkpt>
      <trkpt lat="43.8042" lon="3.10991">
        <ele>453</ele>
        <time>2010-01-01T01:49:38Z</time>
      </trkpt>
      <trkpt lat="43.80348" lon="3.10966">
        <ele>449</ele>
        <time>2010-01-01T01:51:43Z</time>
      </trkpt>
      <trkpt lat="43.80341" lon="3.10974">
        <ele>448</ele>
        <time>2010-01-01T01:51:59Z</time>
      </trkpt>
      <trkpt lat="43.80337" lon="3.11001">
        <ele>447</ele>
        <time>2010-01-01T01:52:33Z</time>
      </trkpt>
      <trkpt lat="43.80329" lon="3.10995">
        <ele>447</ele>
        <time>2010-01-01T01:52:49Z</time>
      </trkpt>
      <trkpt lat="43.80309" lon="3.10904">
        <ele>444</ele>
        <time>2010-01-01T01:54:45Z</time>
      </trkpt>
      <trkpt lat="43.80309" lon="3.10894">
        <ele>444</ele>
        <time>2010-01-01T01:54:58Z</time>
      </trkpt>
      <trkpt lat="43.80343" lon="3.09838">
        <ele>438</ele>
        <time>2010-01-01T02:16:26Z</time>
      </trkpt>
      <trkpt lat="43.80343" lon="3.09836">
        <ele>438</ele>
        <time>2010-01-01T02:16:29Z</time>
      </trkpt>
      <trkpt lat="43.80339" lon="3.09797">
        <ele>439</ele>
        <time>2010-01-01T02:17:16Z</time>
      </trkpt>
      <trkpt lat="43.8033" lon="3.09775">
        <ele>439</ele>
        <time>2010-01-01T02:17:48Z</time>
      </trkpt>
      <trkpt lat="43.80311" lon="3.09761">
        <ele>439</ele>
        <time>2010-01-01T02:18:24Z</time>
      </trkpt>
      <trkpt lat="43.80286" lon="3.09766">
        <ele>438</ele>
        <time>2010-01-01T02:19:06Z</time>
      </trkpt>
      <trkpt lat="43.80283" lon="3.09766">
        <ele>438</ele>
        <time>2010-01-01T02:19:13Z</time>
      </trkpt>
      <trkpt lat="43.80225" lon="3.09568">
        <ele>454</ele>
        <time>2010-01-01T02:23:34Z</time>
      </trkpt>
      <trkpt lat="43.80304" lon="3.09372">
        <ele>464</ele>
        <time>2010-01-01T02:28:07Z</time>
      </trkpt>
      <trkpt lat="43.80343" lon="3.09235">
        <ele>471</ele>
        <time>2010-01-01T02:31:07Z</time>
      </trkpt>
      <trkpt lat="43.80316" lon="3.09111">
        <ele>482</ele>
        <time>2010-01-01T02:33:45Z</time>
      </trkpt>
      <trkpt lat="43.80283" lon="3.09112">
        <ele>487</ele>
        <time>2010-01-01T02:34:40Z</time>
      </trkpt>
      <trkpt lat="43.80284" lon="3.09001">
        <ele>498</ele>
        <time>2010-01-01T02:36:55Z</time>
      </trkpt>
      <trkpt lat="43.80261" lon="3.08979">
        <ele>502</ele>
        <time>2010-01-01T02:37:43Z</time>
      </trkpt>
      <trkpt lat="43.8026" lon="3.08977">
        <ele>502</ele>
        <time>2010-01-01T02:37:46Z</time>
      </trkpt>
      <trkpt lat="43.80274" lon="3.0889">
        <ele>507</ele>
        <time>2010-01-01T02:39:34Z</time>
      </trkpt>
      <trkpt lat="43.8036" lon="3.08794">
        <ele>514</ele>
        <time>2010-01-01T02:42:41Z</time>
      </trkpt>
      <trkpt lat="43.8037" lon="3.08756">
        <ele>517</ele>
        <time>2010-01-01T02:43:30Z</time>
      </trkpt>
      <trkpt lat="43.80343" lon="3.08633">
        <ele>529</ele>
        <time>2010-01-01T02:46:06Z</time>
      </trkpt>
      <trkpt lat="43.8035" lon="3.08618">
        <ele>531</ele>
        <time>2010-01-01T02:46:28Z</time>
      </trkpt>
      <trkpt lat="43.80364" lon="3.08622">
        <ele>532</ele>
        <time>2010-01-01T02:46:51Z</time>
      </trkpt>
      <trkpt lat="43.80375" lon="3.08675">
        <ele>526</ele>
        <time>2010-01-01T02:47:59Z</time>
      </trkpt>
      <trkpt lat="43.80395" lon="3.08694">
        <ele>526</ele>
        <time>2010-01-01T02:48:39Z</time>
      </trkpt>
      <trkpt lat="43.80477" lon="3.08699">
        <ele>530</ele>
        <time>2010-01-01T02:50:59Z</time>
      </trkpt>
      <trkpt lat="43.80535" lon="3.08649">
        <ele>537</ele>
        <time>2010-01-01T02:52:54Z</time>
      </trkpt>
      <trkpt lat="43.8055" lon="3.0865">
        <ele>536</ele>
        <time>2010-01-01T02:53:19Z</time>
      </trkpt>
      <trkpt lat="43.80571" lon="3.08674">
        <ele>533</ele>
        <time>2010-01-01T02:54:06Z</time>
      </trkpt>
      <trkpt lat="43.806" lon="3.08688">
        <ele>531</ele>
        <time>2010-01-01T02:54:57Z</time>
      </trkpt>
      <trkpt lat="43.80618" lon="3.08683">
        <ele>532</ele>
        <time>2010-01-01T02:55:29Z</time>
      </trkpt>
      <trkpt lat="43.80631" lon="3.08668">
        <ele>534</ele>
        <time>2010-01-01T02:55:57Z</time>
      </trkpt>
      <trkpt lat="43.80678" lon="3.08585">
        <ele>550</ele>
        <time>2010-01-01T02:58:06Z</time>
      </trkpt>
      <trkpt lat="43.80712" lon="3.08548">
        <ele>552</ele>
        <time>2010-01-01T02:59:18Z</time>
      </trkpt>
      <trkpt lat="43.8078" lon="3.085">
        <ele>556</ele>
        <time>2010-01-01T03:01:27Z</time>
      </trkpt>
      <trkpt lat="43.80829" lon="3.0844">
        <ele>554</ele>
        <time>2010-01-01T03:03:17Z</time>
      </trkpt>
      <trkpt lat="43.80838" lon="3.08437">
        <ele>554</ele>
        <time>2010-01-01T03:03:33Z</time>
      </trkpt>
      <trkpt lat="43.80903" lon="3.08434">
        <ele>559</ele>
        <time>2010-01-01T03:05:24Z</time>
      </trkpt>
      <trkpt lat="43.80911" lon="3.08447">
        <ele>563</ele>
        <time>2010-01-01T03:05:45Z</time>
      </trkpt>
      <trkpt lat="43.80893" lon="3.08461">
        <ele>563</ele>
        <time>2010-01-01T03:06:21Z</time>
      </trkpt>
      <trkpt lat="43.80877" lon="3.0849">
        <ele>566</ele>
        <time>2010-01-01T03:07:04Z</time>
      </trkpt>
      <trkpt lat="43.8088" lon="3.08532">
        <ele>569</ele>
        <time>2010-01-01T03:07:57Z</time>
      </trkpt>
      <trkpt lat="43.80887" lon="3.08541">
        <ele>571</ele>
        <time>2010-01-01T03:08:12Z</time>
      </trkpt>
      <trkpt lat="43.80894" lon="3.08529">
        <ele>573</ele>
        <time>2010-01-01T03:08:30Z</time>
      </trkpt>
      <trkpt lat="43.80897" lon="3.08495">
        <ele>571</ele>
        <time>2010-01-01T03:09:12Z</time>
      </trkpt>
      <trkpt lat="43.80924" lon="3.08459">
        <ele>567</ele>
        <time>2010-01-01T03:10:16Z</time>
      </trkpt>
      <trkpt lat="43.80975" lon="3.08455">
        <ele>569</ele>
        <time>2010-01-01T03:11:41Z</time>
      </trkpt>
      <trkpt lat="43.80998" lon="3.08495">
        <ele>583</ele>
        <time>2010-01-01T03:12:45Z</time>
      </trkpt>
      <trkpt lat="43.81018" lon="3.08503">
        <ele>586</ele>
        <time>2010-01-01T03:13:19Z</time>
      </trkpt>
      <trkpt lat="43.81064" lon="3.08481">
        <ele>583</ele>
        <time>2010-01-01T03:14:41Z</time>
      </trkpt>
      <trkpt lat="43.81077" lon="3.08481">
        <ele>584</ele>
        <time>2010-01-01T03:15:04Z</time>
      </trkpt>
      <trkpt lat="43.81131" lon="3.08511">
        <ele>588</ele>
        <time>2010-01-01T03:16:41Z</time>
      </trkpt>
      <trkpt lat="43.81164" lon="3.08544">
        <ele>595</ele>
        <time>2010-01-01T03:17:51Z</time>
      </trkpt>
      <trkpt lat="43.81252" lon="3.08611">
        <ele>604</ele>
        <time>2010-01-01T03:20:40Z</time>
      </trkpt>
      <trkpt lat="43.81279" lon="3.08608">
        <ele>604</ele>
        <time>2010-01-01T03:21:25Z</time>
      </trkpt>
      <trkpt lat="43.813" lon="3.08618">
        <ele>606</ele>
        <time>2010-01-01T03:22:03Z</time>
      </trkpt>
      <trkpt lat="43.81309" lon="3.08644">
        <ele>611</ele>
        <time>2010-01-01T03:22:39Z</time>
      </trkpt>
      <trkpt lat="43.81325" lon="3.08684">
        <ele>617</ele>
        <time>2010-01-01T03:23:34Z</time>
      </trkpt>
      <trkpt lat="43.81382" lon="3.08731">
        <ele>622</ele>
        <time>2010-01-01T03:25:26Z</time>
      </trkpt>
      <trkpt lat="43.81415" lon="3.08739">
        <ele>623</ele>
        <time>2010-01-01T03:26:23Z</time>
      </trkpt>
      <trkpt lat="43.81417" lon="3.08741">
        <ele>623</ele>
        <time>2010-01-01T03:26:27Z</time>
      </trkpt>
      <trkpt lat="43.81426" lon="3.08797">
        <ele>621</ele>
        <time>2010-01-01T03:27:37Z</time>
      </trkpt>
      <trkpt lat="43.81433" lon="3.08888">
        <ele>616</ele>
        <time>2010-01-01T03:29:28Z</time>
      </trkpt>
      <trkpt lat="43.81434" lon="3.08895">
        <ele>615</ele>
        <time>2010-01-01T03:29:38Z</time>
      </trkpt>
      <trkpt lat="43.81474" lon="3.0894">
        <ele>605</ele>
        <time>2010-01-01T03:31:04Z</time>
      </trkpt>
      <trkpt lat="43.81503" lon="3.08954">
        <ele>600</ele>
        <time>2010-01-01T03:31:56Z</time>
      </trkpt>
      <trkpt lat="43.81544" lon="3.09">
        <ele>597</ele>
        <time>2010-01-01T03:33:25Z</time>
      </trkpt>
      <trkpt lat="43.8157" lon="3.09015">
        <ele>596</ele>
        <time>2010-01-01T03:34:12Z</time>
      </trkpt>
      <trkpt lat="43.81592" lon="3.09044">
        <ele>596</ele>
        <time>2010-01-01T03:35:04Z</time>
      </trkpt>
      <trkpt lat="43.81594" lon="3.09045">
        <ele>596</ele>
        <time>2010-01-01T03:35:08Z</time>
      </trkpt>
      <trkpt lat="43.81636" lon="3.09081">
        <ele>595</ele>
        <time>2010-01-01T03:36:30Z</time>
      </trkpt>
      <trkpt lat="43.81774" lon="3.09111">
        <ele>603</ele>
        <time>2010-01-01T03:40:27Z</time>
      </trkpt>
      <trkpt lat="43.81785" lon="3.09143">
        <ele>606</ele>
        <time>2010-01-01T03:41:10Z</time>
      </trkpt>
      <trkpt lat="43.81776" lon="3.09248">
        <ele>606</ele>
        <time>2010-01-01T03:43:19Z</time>
      </trkpt>
      <trkpt lat="43.81785" lon="3.09278">
        <ele>605</ele>
        <time>2010-01-01T03:43:59Z</time>
      </trkpt>
      <trkpt lat="43.81806" lon="3.09281">
        <ele>607</ele>
        <time>2010-01-01T03:44:34Z</time>
      </trkpt>
      <trkpt lat="43.81833" lon="3.09261">
        <ele>611</ele>
        <time>2010-01-01T03:45:26Z</time>
      </trkpt>
      <trkpt lat="43.81866" lon="3.09164">
        <ele>623</ele>
        <time>2010-01-01T03:47:36Z</time>
      </trkpt>
      <trkpt lat="43.81904" lon="3.09174">
        <ele>630</ele>
        <time>2010-01-01T03:48:41Z</time>
      </trkpt>
      <trkpt lat="43.81977" lon="3.0916">
        <ele>640</ele>
        <time>2010-01-01T03:50:46Z</time>
      </trkpt>
      <trkpt lat="43.81996" lon="3.09138">
        <ele>644</ele>
        <time>2010-01-01T03:51:28Z</time>
      </trkpt>
      <trkpt lat="43.81995" lon="3.09138">
        <ele>644</ele>
        <time>2010-01-01T03:51:30Z</time>
      </trkpt>
      <trkpt lat="43.8206" lon="3.09141">
        <ele>650</ele>
        <time>2010-01-01T03:53:21Z</time>
      </trkpt>
      <trkpt lat="43.82097" lon="3.09113">
        <ele>660</ele>
        <time>2010-01-01T03:54:30Z</time>
      </trkpt>
      <trkpt lat="43.82157" lon="3.09099">
        <ele>673</ele>
        <time>2010-01-01T03:56:14Z</time>
      </trkpt>
      <trkpt lat="43.82208" lon="3.09144">
        <ele>676</ele>
        <time>2010-01-01T03:57:56Z</time>
      </trkpt>
      <trkpt lat="43.82297" lon="3.09131">
        <ele>698</ele>
        <time>2010-01-01T04:00:27Z</time>
      </trkpt>
      <trkpt lat="43.8231" lon="3.09138">
        <ele>700</ele>
        <time>2010-01-01T04:00:50Z</time>
      </trkpt>
      <trkpt lat="43.82325" lon="3.09212">
        <ele>700</ele>
        <time>2010-01-01T04:02:24Z</time>
      </trkpt>
      <trkpt lat="43.82326" lon="3.0922">
        <ele>700</ele>
        <time>2010-01-01T04:02:34Z</time>
      </trkpt>
      <trkpt lat="43.82322" lon="3.09387">
        <ele>705</ele>
        <time>2010-01-01T04:05:58Z</time>
      </trkpt>
      <trkpt lat="43.82324" lon="3.09386">
        <ele>705</ele>
        <time>2010-01-01T04:06:01Z</time>
      </trkpt>
      <trkpt lat="43.82402" lon="3.09484">
        <ele>712</ele>
        <time>2010-01-01T04:09:00Z</time>
      </trkpt>
      <trkpt lat="43.82466" lon="3.0966">
        <ele>708</ele>
        <time>2010-01-01T04:12:59Z</time>
      </trkpt>
      <trkpt lat="43.82547" lon="3.0978">
        <ele>689</ele>
        <time>2010-01-01T04:16:20Z</time>
      </trkpt>
      <trkpt lat="43.8255" lon="3.09786">
        <ele>689</ele>
        <time>2010-01-01T04:16:29Z</time>
      </trkpt>
      <trkpt lat="43.82576" lon="3.09822">
        <ele>685</ele>
        <time>2010-01-01T04:17:31Z</time>
      </trkpt>
      <trkpt lat="43.82602" lon="3.0992">
        <ele>682</ele>
        <time>2010-01-01T04:19:38Z</time>
      </trkpt>
      <trkpt lat="43.82699" lon="3.10036">
        <ele>678</ele>
        <time>2010-01-01T04:23:14Z</time>
      </trkpt>
      <trkpt lat="43.82729" lon="3.10096">
        <ele>679</ele>
        <time>2010-01-01T04:24:43Z</time>
      </trkpt>
      <trkpt lat="43.82727" lon="3.1015">
        <ele>673</ele>
        <time>2010-01-01T04:25:49Z</time>
      </trkpt>
      <trkpt lat="43.82727" lon="3.10153">
        <ele>673</ele>
        <time>2010-01-01T04:25:53Z</time>
      </trkpt>
      <trkpt lat="43.82733" lon="3.10209">
        <ele>666</ele>
        <time>2010-01-01T04:27:01Z</time>
      </trkpt>
      <trkpt lat="43.82751" lon="3.10254">
        <ele>658</ele>
        <time>2010-01-01T04:28:04Z</time>
      </trkpt>
      <trkpt lat="43.82777" lon="3.10298">
        <ele>661</ele>
        <time>2010-01-01T04:29:14Z</time>
      </trkpt>
      <trkpt lat="43.82829" lon="3.10354">
        <ele>654</ele>
        <time>2010-01-01T04:31:05Z</time>
      </trkpt>
      <trkpt lat="43.82883" lon="3.10428">
        <ele>650</ele>
        <time>2010-01-01T04:33:13Z</time>
      </trkpt>
      <trkpt lat="43.82981" lon="3.10536">
        <ele>643</ele>
        <time>2010-01-01T04:36:45Z</time>
      </trkpt>
      <trkpt lat="43.82982" lon="3.10538">
        <ele>643</ele>
        <time>2010-01-01T04:36:47Z</time>
      </trkpt>
      <trkpt lat="43.83018" lon="3.10612">
        <ele>641</ele>
        <time>2010-01-01T04:38:37Z</time>
      </trkpt>
      <trkpt lat="43.83101" lon="3.10829">
        <ele>626</ele>
        <time>2010-01-01T04:43:35Z</time>
      </trkpt>
      <trkpt lat="43.83135" lon="3.10896">
        <ele>625</ele>
        <time>2010-01-01T04:45:15Z</time>
      </trkpt>
      <trkpt lat="43.83146" lon="3.10897">
        <ele>627</ele>
        <time>2010-01-01T04:45:34Z</time>
      </trkpt>
      <trkpt lat="43.83179" lon="3.10961">
        <ele>618</ele>
        <time>2010-01-01T04:47:10Z</time>
      </trkpt>
      <trkpt lat="43.83211" lon="3.11002">
        <ele>614</ele>
        <time>2010-01-01T04:48:24Z</time>
      </trkpt>
      <trkpt lat="43.83217" lon="3.11047">
        <ele>607</ele>
        <time>2010-01-01T04:49:19Z</time>
      </trkpt>
      <trkpt lat="43.83218" lon="3.11048">
        <ele>607</ele>
        <time>2010-01-01T04:49:22Z</time>
      </trkpt>
      <trkpt lat="43.83237" lon="3.11056">
        <ele>604</ele>
        <time>2010-01-01T04:49:54Z</time>
      </trkpt>
      <trkpt lat="43.83288" lon="3.11095">
        <ele>603</ele>
        <time>2010-01-01T04:51:34Z</time>
      </trkpt>
      <trkpt lat="43.83317" lon="3.11126">
        <ele>603</ele>
        <time>2010-01-01T04:52:35Z</time>
      </trkpt>
      <trkpt lat="43.8332" lon="3.11146">
        <ele>598</ele>
        <time>2010-01-01T04:53:00Z</time>
      </trkpt>
      <trkpt lat="43.8335" lon="3.11192">
        <ele>595</ele>
        <time>2010-01-01T04:54:16Z</time>
      </trkpt>
      <trkpt lat="43.83351" lon="3.11193">
        <ele>595</ele>
        <time>2010-01-01T04:54:18Z</time>
      </trkpt>
      <trkpt lat="43.83382" lon="3.11249">
        <ele>589</ele>
        <time>2010-01-01T04:55:45Z</time>
      </trkpt>
      <trkpt lat="43.8346" lon="3.11356">
        <ele>583</ele>
        <time>2010-01-01T04:58:49Z</time>
      </trkpt>
      <trkpt lat="43.83523" lon="3.11422">
        <ele>572</ele>
        <time>2010-01-01T05:01:03Z</time>
      </trkpt>
      <trkpt lat="43.83523" lon="3.11423">
        <ele>572</ele>
        <time>2010-01-01T05:01:04Z</time>
      </trkpt>
      <trkpt lat="43.83556" lon="3.11466">
        <ele>569</ele>
        <time>2010-01-01T05:02:21Z</time>
      </trkpt>
      <trkpt lat="43.8358" lon="3.11522">
        <ele>559</ele>
        <time>2010-01-01T05:03:39Z</time>
      </trkpt>
      <trkpt lat="43.83601" lon="3.11605">
        <ele>551</ele>
        <time>2010-01-01T05:05:27Z</time>
      </trkpt>
      <trkpt lat="43.83611" lon="3.11654">
        <ele>547</ele>
        <time>2010-01-01T05:06:29Z</time>
      </trkpt>
      <trkpt lat="43.83624" lon="3.1173">
        <ele>543</ele>
        <time>2010-01-01T05:08:05Z</time>
      </trkpt>
      <trkpt lat="43.83641" lon="3.11771">
        <ele>538</ele>
        <time>2010-01-01T05:09:02Z</time>
      </trkpt>
      <trkpt lat="43.83641" lon="3.11776">
        <ele>538</ele>
        <time>2010-01-01T05:09:09Z</time>
      </trkpt>
      <trkpt lat="43.83656" lon="3.11798">
        <ele>535</ele>
        <time>2010-01-01T05:09:45Z</time>
      </trkpt>
    </trkseg>
  </trk>
</gpx>